Time;durP1;ratioP1;P1;durP2;ratioP2;P2;SDS_P1;SDS_P2;PMS_P1;PMS_P2;Temp;Humidity;BMP_temperature;BMP_pressure;BME280_temperature;BME280_humidity;BME280_pressure;Samples;Min_cycle;Max_cycle;Signal;HPM_P1;HPM_P2
2023/07/22 00:00:43;;;;;;;2.63;0.60;;;19.50;45.70;;;;;;4950916;28;20042;-70
2023/07/22 00:03:10;;;;;;;2.35;0.75;;;19.80;45.40;;;;;;4950559;28;20027;-69
2023/07/22 00:05:37;;;;;;;3.33;0.60;;;19.70;46.20;;;;;;4948911;28;20126;-70
2023/07/22 00:08:05;;;;;;;1.70;0.50;;;20.20;44.70;;;;;;4936408;28;20027;-69
2023/07/22 00:10:32;;;;;;;1.77;0.45;;;20.00;44.80;;;;;;4948358;28;20421;-69
2023/07/22 00:13:00;;;;;;;3.63;0.82;;;20.00;44.00;;;;;;4957852;28;20069;-69
2023/07/22 00:15:27;;;;;;;5.82;0.50;;;19.70;45.30;;;;;;4949819;28;20098;-69
2023/07/22 00:17:55;;;;;;;4.10;0.50;;;19.80;44.40;;;;;;4954171;28;20030;-69
2023/07/22 00:20:23;;;;;;;1.98;0.73;;;19.80;45.20;;;;;;4949694;28;20481;-68
2023/07/22 00:22:50;;;;;;;3.25;0.73;;;20.00;44.50;;;;;;4952147;28;20082;-70
2023/07/22 00:25:18;;;;;;;3.25;0.70;;;20.70;44.00;;;;;;4942578;28;20063;-68
2023/07/22 00:27:45;;;;;;;2.30;0.52;;;20.40;43.80;;;;;;4948828;28;20488;-68
2023/07/22 00:30:13;;;;;;;3.70;0.82;;;20.30;45.70;;;;;;4949158;28;20040;-70
2023/07/22 00:32:41;;;;;;;4.18;0.60;;;20.40;44.60;;;;;;4947529;28;20118;-70
2023/07/22 00:35:09;;;;;;;4.97;0.47;;;20.50;44.10;;;;;;4944542;28;20409;-71
2023/07/22 00:37:37;;;;;;;2.50;0.80;;;20.60;44.10;;;;;;4947132;28;20027;-70
2023/07/22 00:40:06;;;;;;;3.65;0.88;;;20.90;43.90;;;;;;4947062;28;20023;-72
2023/07/22 00:42:33;;;;;;;2.72;0.85;;;21.10;43.40;;;;;;4951277;28;20063;-69
2023/07/22 00:45:00;;;;;;;8.15;1.13;;;21.40;42.30;;;;;;4946653;28;20035;-70
2023/07/22 00:47:28;;;;;;;1.90;0.60;;;21.50;43.10;;;;;;4951018;28;20484;-69
2023/07/22 00:49:56;;;;;;;2.75;0.70;;;21.70;44.50;;;;;;4945239;28;20027;-69
2023/07/22 00:52:23;;;;;;;3.13;0.60;;;21.90;42.70;;;;;;4953734;28;20042;-69
2023/07/22 00:54:50;;;;;;;2.47;0.50;;;22.40;43.20;;;;;;4951194;28;20074;-70
2023/07/22 00:57:19;;;;;;;1.00;0.40;;;22.70;41.70;;;;;;4949837;28;20492;-70
2023/07/22 00:59:47;;;;;;;3.78;0.57;;;22.90;41.60;;;;;;4947776;28;20137;-72
2023/07/22 01:02:14;;;;;;;5.68;1.25;;;23.00;41.90;;;;;;4948572;28;20031;-70
2023/07/22 01:04:42;;;;;;;3.40;1.08;;;23.10;42.50;;;;;;4947014;28;20043;-70
2023/07/22 01:07:10;;;;;;;3.58;0.73;;;23.00;41.30;;;;;;4953689;28;20389;-70
2023/07/22 01:09:43;;;;;;;7.22;0.70;;;22.90;41.30;;;;;;4950199;28;20027;-70
2023/07/22 01:12:11;;;;;;;1.58;0.50;;;23.00;41.80;;;;;;4949373;28;20368;-69
2023/07/22 01:14:40;;;;;;;3.17;0.50;;;22.70;40.50;;;;;;4946139;28;20143;-70
2023/07/22 01:17:10;;;;;;;2.17;0.60;;;22.80;40.90;;;;;;4951428;28;20035;-71
2023/07/22 01:19:37;;;;;;;3.25;0.55;;;23.40;40.80;;;;;;4951454;28;20489;-70
2023/07/22 01:22:10;;;;;;;2.88;0.60;;;23.40;41.10;;;;;;4949350;28;20038;-69
2023/07/22 01:24:39;;;;;;;3.00;0.40;;;23.40;40.40;;;;;;4947715;28;20364;-69
2023/07/22 01:27:13;;;;;;;1.27;0.73;;;23.80;40.00;;;;;;4948112;28;20031;-70
2023/07/22 01:29:41;;;;;;;1.38;0.55;;;23.80;40.30;;;;;;4953671;28;20028;-69
2023/07/22 01:32:09;;;;;;;3.97;1.00;;;23.70;40.20;;;;;;4948487;28;20473;-70
2023/07/22 01:34:36;;;;;;;1.50;0.60;;;23.70;40.80;;;;;;4948641;28;20026;-69
2023/07/22 01:37:04;;;;;;;1.85;0.70;;;24.10;38.40;;;;;;4948385;28;20042;-70
2023/07/22 01:39:32;;;;;;;0.68;0.30;;;24.00;40.00;;;;;;4950088;28;20114;-70
2023/07/22 01:41:59;;;;;;;6.43;0.82;;;24.00;39.30;;;;;;4947904;28;20427;-69
2023/07/22 01:44:27;;;;;;;4.05;0.80;;;24.20;39.50;;;;;;4948056;28;20070;-69
2023/07/22 01:46:54;;;;;;;3.90;0.50;;;24.10;38.80;;;;;;4947971;28;20027;-69
2023/07/22 01:49:24;;;;;;;3.00;0.50;;;23.80;39.90;;;;;;4950244;28;20023;-69
2023/07/22 01:51:52;;;;;;;1.98;0.80;;;24.10;39.70;;;;;;4948619;28;20031;-69
2023/07/22 01:54:20;;;;;;;2.40;0.45;;;24.70;37.90;;;;;;4956529;28;20134;-69
2023/07/22 01:56:47;;;;;;;1.98;0.63;;;24.30;38.60;;;;;;4947468;28;20134;-69
2023/07/22 01:59:14;;;;;;;7.15;0.50;;;23.80;39.90;;;;;;4945562;28;20023;-69
2023/07/22 02:01:42;;;;;;;3.35;0.50;;;23.90;39.10;;;;;;4950499;28;20038;-69
2023/07/22 02:04:10;;;;;;;4.03;0.60;;;24.10;39.90;;;;;;4945051;28;20035;-69
2023/07/22 02:06:38;;;;;;;3.90;0.82;;;24.20;39.70;;;;;;4944917;28;20059;-69
2023/07/22 02:09:08;;;;;;;2.20;0.40;;;24.10;40.50;;;;;;4951115;28;20026;-69
2023/07/22 02:11:38;;;;;;;2.80;0.60;;;24.30;39.60;;;;;;4952916;28;20031;-69
2023/07/22 02:14:06;;;;;;;1.17;0.50;;;24.70;39.70;;;;;;4951047;28;20043;-71
2023/07/22 02:16:37;;;;;;;1.85;0.45;;;24.50;38.40;;;;;;4952831;28;20063;-70
2023/07/22 02:19:05;;;;;;;2.28;0.45;;;24.60;38.40;;;;;;4952055;28;20038;-70
2023/07/22 02:21:32;;;;;;;1.40;0.47;;;24.40;38.40;;;;;;4954109;28;20027;-69
2023/07/22 02:24:00;;;;;;;1.98;0.50;;;24.10;38.40;;;;;;4950393;28;20106;-70
2023/07/22 02:26:27;;;;;;;1.67;0.60;;;23.90;38.80;;;;;;4950224;28;20358;-70
2023/07/22 02:28:54;;;;;;;3.42;1.08;;;24.20;38.90;;;;;;4951563;28;20141;-69
2023/07/22 02:31:22;;;;;;;1.95;0.50;;;24.30;39.30;;;;;;4952400;28;20123;-70
2023/07/22 02:33:50;;;;;;;2.70;0.77;;;24.20;38.50;;;;;;4949587;28;20035;-71
2023/07/22 02:36:17;;;;;;;1.92;0.77;;;24.40;39.10;;;;;;4951341;28;20094;-74
2023/07/22 02:38:44;;;;;;;1.45;0.50;;;24.10;38.60;;;;;;4950014;28;20034;-70
2023/07/22 02:41:12;;;;;;;4.65;0.85;;;23.90;39.00;;;;;;4969556;28;20054;-71
2023/07/22 02:43:40;;;;;;;2.85;0.70;;;24.50;38.70;;;;;;4952968;28;20062;-71
2023/07/22 02:46:08;;;;;;;1.90;0.52;;;24.60;37.70;;;;;;4949135;28;20031;-70
2023/07/22 02:48:36;;;;;;;3.22;0.95;;;23.80;39.30;;;;;;4950930;28;20038;-70
2023/07/22 02:51:11;;;;;;;3.42;0.70;;;23.80;38.30;;;;;;4950811;28;20019;-70
2023/07/22 02:53:38;;;;;;;1.20;0.50;;;22.80;41.20;;;;;;4968428;28;20039;-71
2023/07/22 02:56:11;;;;;;;2.90;0.82;;;22.50;42.40;;;;;;4951829;28;20049;-70
2023/07/22 02:58:38;;;;;;;3.22;0.75;;;22.90;41.90;;;;;;4954715;28;20113;-70
2023/07/22 03:01:08;;;;;;;3.28;0.77;;;23.10;39.70;;;;;;4953222;28;20070;-70
2023/07/22 03:03:36;;;;;;;2.22;0.40;;;23.20;39.90;;;;;;4952777;28;20445;-70
2023/07/22 03:06:04;;;;;;;1.90;0.65;;;23.20;38.20;;;;;;4951105;28;20508;-70
2023/07/22 03:08:31;;;;;;;2.15;0.47;;;22.70;40.00;;;;;;4958800;28;20027;-70
2023/07/22 03:10:59;;;;;;;4.57;0.90;;;22.80;40.50;;;;;;4950677;28;20041;-70
2023/07/22 03:13:29;;;;;;;1.63;0.60;;;22.70;41.20;;;;;;4952074;28;20046;-70
2023/07/22 03:15:58;;;;;;;3.42;1.10;;;22.90;40.40;;;;;;4951825;28;20038;-69
2023/07/22 03:18:26;;;;;;;3.58;0.95;;;22.70;41.00;;;;;;4951057;28;20034;-69
2023/07/22 03:20:53;;;;;;;2.05;0.70;;;22.60;40.70;;;;;;4954531;28;20031;-72
2023/07/22 03:23:20;;;;;;;2.47;0.50;;;22.10;41.30;;;;;;4950245;28;20031;-69
2023/07/22 03:25:48;;;;;;;2.97;0.80;;;22.10;39.80;;;;;;4942847;28;20424;-70
2023/07/22 03:28:16;;;;;;;3.60;0.80;;;21.80;41.90;;;;;;4952146;28;20045;-70
2023/07/22 03:30:44;;;;;;;1.38;0.50;;;21.80;41.60;;;;;;4951358;28;21017;-70
2023/07/22 03:33:11;;;;;;;3.00;0.60;;;21.60;41.70;;;;;;4955679;28;20052;-69
2023/07/22 03:35:38;;;;;;;3.17;0.52;;;21.10;42.80;;;;;;4952512;28;20023;-69
2023/07/22 03:38:09;;;;;;;3.08;0.88;;;20.90;42.30;;;;;;4955978;28;20046;-70
2023/07/22 03:40:37;;;;;;;3.67;0.73;;;20.60;43.90;;;;;;4949638;28;20131;-70
2023/07/22 03:43:05;;;;;;;1.38;0.77;;;20.30;44.50;;;;;;4952920;28;20134;-70
2023/07/22 03:45:32;;;;;;;2.85;0.50;;;20.20;44.80;;;;;;4947564;28;20023;-70
2023/07/22 03:48:01;;;;;;;2.92;0.60;;;20.10;45.20;;;;;;4947486;28;20150;-70
2023/07/22 03:50:29;;;;;;;2.42;0.60;;;20.20;45.20;;;;;;4945725;28;20449;-69
2023/07/22 03:52:56;;;;;;;2.55;0.47;;;20.00;45.20;;;;;;4949271;28;20055;-70
2023/07/22 03:55:23;;;;;;;1.48;0.50;;;19.80;45.20;;;;;;4948917;28;20026;-69
2023/07/22 03:57:51;;;;;;;1.17;0.40;;;19.50;45.90;;;;;;4950828;28;20097;-70
2023/07/22 04:00:18;;;;;;;4.10;0.73;;;19.50;46.50;;;;;;4966691;28;20393;-69
2023/07/22 04:02:46;;;;;;;1.10;0.43;;;19.40;47.10;;;;;;4950530;28;20035;-69
2023/07/22 04:05:13;;;;;;;3.72;0.50;;;19.30;46.90;;;;;;4951741;28;20107;-69
2023/07/22 04:07:41;;;;;;;5.95;0.75;;;19.10;46.40;;;;;;4951269;28;20086;-71
2023/07/22 04:10:08;;;;;;;1.88;0.50;;;19.00;47.00;;;;;;4949179;28;20031;-70
2023/07/22 04:12:36;;;;;;;1.98;0.60;;;18.90;47.30;;;;;;4948797;28;20507;-69
2023/07/22 04:15:03;;;;;;;1.83;0.63;;;18.80;46.70;;;;;;4946060;28;20026;-70
2023/07/22 04:17:31;;;;;;;1.17;0.30;;;18.90;46.90;;;;;;4946960;28;20386;-69
2023/07/22 04:19:58;;;;;;;2.47;0.52;;;19.00;46.20;;;;;;4946667;28;20062;-70
2023/07/22 04:22:25;;;;;;;2.80;0.50;;;18.80;46.60;;;;;;4952159;28;20027;-69
2023/07/22 04:24:53;;;;;;;2.70;0.30;;;18.80;46.10;;;;;;4949097;28;20031;-70
2023/07/22 04:27:20;;;;;;;0.90;0.40;;;18.80;46.50;;;;;;4949472;28;20031;-69
2023/07/22 04:29:47;;;;;;;3.25;0.70;;;18.70;48.40;;;;;;4954557;28;20031;-69
2023/07/22 04:32:15;;;;;;;1.83;0.60;;;18.80;48.10;;;;;;4949739;28;20868;-69
2023/07/22 04:34:42;;;;;;;6.40;0.60;;;18.70;48.30;;;;;;4948872;28;20051;-70
2023/07/22 04:37:09;;;;;;;3.42;0.57;;;18.80;48.80;;;;;;4951509;28;20388;-70
2023/07/22 04:39:38;;;;;;;1.98;0.45;;;19.00;48.20;;;;;;4951971;28;20038;-69
2023/07/22 04:42:05;;;;;;;2.38;0.43;;;19.10;48.90;;;;;;4952235;28;20509;-68
2023/07/22 04:44:32;;;;;;;2.92;0.70;;;19.00;47.80;;;;;;4950398;28;20484;-69
2023/07/22 04:47:00;;;;;;;1.45;0.60;;;19.10;48.00;;;;;;4950574;28;20145;-69
2023/07/22 04:49:27;;;;;;;5.65;0.77;;;19.10;46.90;;;;;;4946923;28;20392;-69
2023/07/22 04:51:55;;;;;;;3.55;0.63;;;19.20;47.70;;;;;;4948861;28;20027;-69
2023/07/22 04:54:23;;;;;;;2.85;0.57;;;19.10;48.00;;;;;;4949705;28;20054;-70
2023/07/22 04:56:50;;;;;;;3.92;0.60;;;19.10;47.90;;;;;;4949685;28;20047;-71
2023/07/22 04:59:18;;;;;;;2.97;0.85;;;19.00;47.70;;;;;;4950753;28;20049;-70
2023/07/22 05:01:45;;;;;;;4.40;0.77;;;18.80;47.90;;;;;;4948875;28;20094;-71
2023/07/22 05:04:13;;;;;;;2.03;0.63;;;19.00;47.40;;;;;;4945589;28;20122;-71
2023/07/22 05:06:40;;;;;;;3.80;0.70;;;19.40;48.30;;;;;;4947301;28;20031;-72
2023/07/22 05:09:07;;;;;;;1.55;0.40;;;19.50;49.10;;;;;;4947204;28;20366;-71
2023/07/22 05:11:35;;;;;;;1.75;0.63;;;19.40;48.90;;;;;;4953835;28;20559;-70
2023/07/22 05:14:02;;;;;;;2.35;0.50;;;19.30;49.60;;;;;;4947371;28;20097;-69
2023/07/22 05:16:29;;;;;;;2.60;0.60;;;19.30;49.60;;;;;;4952234;28;20062;-70
2023/07/22 05:18:57;;;;;;;3.65;0.60;;;19.10;49.50;;;;;;4949985;28;20062;-70
2023/07/22 05:21:25;;;;;;;3.33;0.88;;;19.10;50.30;;;;;;4954028;28;20030;-69
2023/07/22 05:23:52;;;;;;;3.03;0.60;;;19.20;49.90;;;;;;4952261;28;20107;-72
2023/07/22 05:26:19;;;;;;;3.67;0.70;;;19.00;50.30;;;;;;4949445;28;20338;-69
2023/07/22 05:28:47;;;;;;;2.08;1.15;;;19.20;50.20;;;;;;4946547;28;20030;-71
2023/07/22 05:31:14;;;;;;;2.30;0.70;;;19.00;50.40;;;;;;4947180;28;20031;-69
2023/07/22 05:33:41;;;;;;;1.67;0.55;;;18.90;50.80;;;;;;4948140;28;20031;-69
2023/07/22 05:36:09;;;;;;;2.13;0.63;;;18.80;50.40;;;;;;4947665;28;20035;-69
2023/07/22 05:38:36;;;;;;;2.03;0.70;;;18.70;50.80;;;;;;4950287;28;20030;-69
2023/07/22 05:41:03;;;;;;;2.40;0.88;;;18.50;50.70;;;;;;4932314;28;20039;-69
2023/07/22 05:43:31;;;;;;;1.63;0.77;;;18.40;51.40;;;;;;4952139;28;20027;-69
2023/07/22 05:45:58;;;;;;;2.08;1.00;;;18.20;51.50;;;;;;4945984;28;20048;-69
2023/07/22 05:48:25;;;;;;;3.33;1.27;;;18.00;52.10;;;;;;4953064;28;20690;-69
2023/07/22 05:50:53;;;;;;;2.08;0.60;;;18.10;52.10;;;;;;4954742;28;20039;-69
2023/07/22 05:53:20;;;;;;;3.13;1.00;;;18.10;52.20;;;;;;4948738;28;20035;-69
2023/07/22 05:55:47;;;;;;;1.60;0.60;;;18.10;52.40;;;;;;4949646;28;20109;-69
2023/07/22 05:58:18;;;;;;;1.65;0.63;;;18.10;52.20;;;;;;4953081;28;20413;-68
2023/07/22 06:00:51;;;;;;;0.93;0.40;;;18.30;52.60;;;;;;4953367;28;20023;-68
2023/07/22 06:03:19;;;;;;;1.52;0.60;;;18.20;52.20;;;;;;4953208;28;20027;-69
2023/07/22 06:05:46;;;;;;;1.20;0.68;;;18.30;51.80;;;;;;4953202;28;20031;-70
2023/07/22 06:08:14;;;;;;;3.33;0.68;;;18.30;52.10;;;;;;4949795;28;20031;-70
2023/07/22 06:10:42;;;;;;;2.63;0.80;;;18.10;52.80;;;;;;4950536;28;20119;-70
2023/07/22 06:13:09;;;;;;;2.53;0.75;;;18.30;53.00;;;;;;4958250;28;20043;-70
2023/07/22 06:15:37;;;;;;;4.03;0.55;;;18.30;51.70;;;;;;4949350;28;20110;-69
2023/07/22 06:18:08;;;;;;;4.22;0.60;;;18.30;51.80;;;;;;4956011;28;20016;-69
2023/07/22 06:20:36;;;;;;;2.72;0.70;;;18.20;52.00;;;;;;4949438;28;20114;-69
2023/07/22 06:23:04;;;;;;;1.92;0.60;;;18.20;52.20;;;;;;4954341;28;20019;-69
2023/07/22 06:25:31;;;;;;;1.77;0.80;;;18.40;51.70;;;;;;4949972;28;20114;-69
2023/07/22 06:27:58;;;;;;;1.98;0.60;;;18.20;52.50;;;;;;4955863;28;20051;-69
2023/07/22 06:30:26;;;;;;;1.33;0.70;;;18.30;52.30;;;;;;4952714;28;20066;-69
2023/07/22 06:32:53;;;;;;;4.20;1.38;;;18.40;51.90;;;;;;4943968;28;20031;-69
2023/07/22 06:35:21;;;;;;;1.92;1.02;;;18.40;51.20;;;;;;4950831;28;20575;-69
2023/07/22 06:37:48;;;;;;;3.17;1.20;;;18.40;51.50;;;;;;4954238;28;20031;-69
2023/07/22 06:40:15;;;;;;;2.75;0.90;;;18.30;51.50;;;;;;4950030;28;20037;-71
2023/07/22 06:42:43;;;;;;;5.03;1.40;;;18.20;52.00;;;;;;4947105;28;20114;-71
2023/07/22 06:45:10;;;;;;;3.53;1.17;;;18.10;52.80;;;;;;4946537;28;20043;-72
2023/07/22 06:47:38;;;;;;;4.78;1.00;;;18.00;53.40;;;;;;4949170;28;20154;-70
2023/07/22 06:50:05;;;;;;;5.25;2.17;;;17.60;54.40;;;;;;4945343;28;20031;-70
2023/07/22 06:52:33;;;;;;;3.47;1.13;;;17.50;54.80;;;;;;4943056;28;20043;-70
2023/07/22 06:55:01;;;;;;;3.67;1.58;;;17.30;55.50;;;;;;4949537;28;20035;-71
2023/07/22 06:57:29;;;;;;;5.70;1.42;;;17.20;56.20;;;;;;4949103;28;20138;-72
2023/07/22 06:59:57;;;;;;;4.93;1.40;;;17.00;57.20;;;;;;4945843;28;20499;-70
2023/07/22 07:02:25;;;;;;;7.95;1.50;;;16.90;57.70;;;;;;4949180;28;20559;-71
2023/07/22 07:04:52;;;;;;;4.13;1.35;;;16.70;58.40;;;;;;4952173;28;20039;-71
2023/07/22 07:07:19;;;;;;;6.70;1.30;;;16.60;59.20;;;;;;4954166;28;20129;-70
2023/07/22 07:09:47;;;;;;;3.97;1.10;;;16.40;59.60;;;;;;4951277;28;20031;-69
2023/07/22 07:12:14;;;;;;;3.75;1.30;;;16.30;60.20;;;;;;4952115;28;20409;-69
2023/07/22 07:14:42;;;;;;;3.92;0.93;;;16.20;60.50;;;;;;4944913;28;20086;-71
2023/07/22 07:17:09;;;;;;;5.85;1.40;;;16.10;61.10;;;;;;4951439;28;20401;-70
2023/07/22 07:19:36;;;;;;;4.10;1.95;;;16.00;61.70;;;;;;4948315;28;20031;-69
2023/07/22 07:22:04;;;;;;;3.88;2.22;;;15.90;62.20;;;;;;4950865;28;20402;-70
2023/07/22 07:24:31;;;;;;;6.90;1.95;;;15.80;62.60;;;;;;4950115;28;20075;-70
2023/07/22 07:26:58;;;;;;;3.63;1.70;;;15.60;63.10;;;;;;4932021;28;20038;-71
2023/07/22 07:29:26;;;;;;;4.00;1.73;;;15.50;63.90;;;;;;4931882;29;20477;-70
2023/07/22 07:31:53;;;;;;;4.80;1.98;;;15.40;64.10;;;;;;4948664;28;20107;-70
2023/07/22 07:34:20;;;;;;;4.75;1.67;;;15.20;64.80;;;;;;4941773;28;20485;-70
2023/07/22 07:36:48;;;;;;;4.45;1.35;;;15.20;65.10;;;;;;4949717;28;20045;-72
2023/07/22 07:39:16;;;;;;;2.60;1.23;;;15.10;65.40;;;;;;4945399;28;20500;-70
2023/07/22 07:41:43;;;;;;;3.30;1.30;;;15.10;66.00;;;;;;4950580;28;20065;-72
2023/07/22 07:44:10;;;;;;;4.78;1.80;;;15.00;66.30;;;;;;4948557;28;20030;-68
2023/07/22 07:46:38;;;;;;;5.38;2.55;;;15.00;66.30;;;;;;4949475;28;20031;-69
2023/07/22 07:49:09;;;;;;;8.10;2.78;;;14.90;66.60;;;;;;4949658;28;20035;-70
2023/07/22 07:51:39;;;;;;;8.02;3.45;;;14.80;67.40;;;;;;4966146;28;20481;-69
2023/07/22 07:54:11;;;;;;;9.60;3.15;;;14.70;67.80;;;;;;4935535;28;20059;-70
2023/07/22 07:56:40;;;;;;;9.82;4.53;;;14.70;68.30;;;;;;4945320;28;20520;-70
2023/07/22 07:59:11;;;;;;;10.77;5.32;;;14.60;68.90;;;;;;4948017;28;20046;-70
2023/07/22 08:01:41;;;;;;;10.82;5.25;;;14.50;69.20;;;;;;4948853;28;20078;-70
2023/07/22 08:04:11;;;;;;;11.25;3.80;;;14.50;69.40;;;;;;4952415;28;20485;-71
2023/07/22 08:06:40;;;;;;;6.75;3.40;;;14.40;70.00;;;;;;4934382;28;20062;-71
2023/07/22 08:09:10;;;;;;;10.23;3.70;;;14.30;70.80;;;;;;4944080;28;20046;-70
2023/07/22 08:11:39;;;;;;;6.57;3.25;;;14.20;71.30;;;;;;4951388;28;20473;-70
2023/07/22 08:14:08;;;;;;;6.13;2.40;;;14.20;72.00;;;;;;4945507;28;20043;-71
2023/07/22 08:16:35;;;;;;;7.65;2.13;;;14.00;72.40;;;;;;4947845;28;20023;-68
2023/07/22 08:19:04;;;;;;;7.00;2.90;;;13.90;73.40;;;;;;4950181;28;20030;-69
2023/07/22 08:21:31;;;;;;;7.25;2.97;;;13.80;73.90;;;;;;4948400;28;20054;-68
2023/07/22 08:23:58;;;;;;;8.10;3.58;;;13.60;75.40;;;;;;4963565;28;20034;-70
2023/07/22 08:26:26;;;;;;;9.77;3.45;;;13.50;75.80;;;;;;4949648;28;20035;-68
2023/07/22 08:28:53;;;;;;;8.43;3.28;;;13.50;76.40;;;;;;4948928;28;20032;-68
2023/07/22 08:31:21;;;;;;;7.60;3.08;;;13.60;75.80;;;;;;4947607;28;20452;-70
2023/07/22 08:33:48;;;;;;;7.10;3.35;;;13.60;75.70;;;;;;4951074;28;20073;-69
2023/07/22 08:36:15;;;;;;;14.60;4.25;;;13.40;77.10;;;;;;4954643;28;20085;-69
2023/07/22 08:38:43;;;;;;;9.32;4.47;;;13.10;78.50;;;;;;4947262;28;20393;-70
2023/07/22 08:41:10;;;;;;;;;;;13.10;79.50;;;;;;4945531;28;20035;-70
2023/07/22 08:43:40;;;;;;;7.30;4.00;;;13.20;79.10;;;;;;4945640;28;19910;-70
2023/07/22 08:46:09;;;;;;;6.85;3.70;;;13.10;79.80;;;;;;4947329;28;20085;-68
2023/07/22 08:48:41;;;;;;;10.27;4.43;;;13.00;79.80;;;;;;4938590;28;20441;-70
2023/07/22 08:51:16;;;;;;;11.00;3.80;;;12.90;80.10;;;;;;4933792;29;20093;-69
2023/07/22 08:53:45;;;;;;;10.82;3.55;;;12.70;80.70;;;;;;4948135;28;20496;-69
2023/07/22 08:56:12;;;;;;;9.43;3.70;;;12.50;81.10;;;;;;4950369;28;20581;-70
2023/07/22 08:58:42;;;;;;;7.85;3.42;;;12.40;82.00;;;;;;4942305;28;20031;-69
2023/07/22 09:01:10;;;;;;;6.85;3.17;;;12.30;82.40;;;;;;4951406;28;20490;-70
2023/07/22 09:03:41;;;;;;;8.57;3.35;;;12.20;82.80;;;;;;4957668;28;20058;-71
2023/07/22 09:06:08;;;;;;;6.53;3.22;;;12.10;83.40;;;;;;4948940;28;20043;-68
2023/07/22 09:08:36;;;;;;;11.05;3.53;;;12.00;83.90;;;;;;4952962;28;20054;-68
2023/07/22 09:11:03;;;;;;;10.00;3.83;;;12.00;84.00;;;;;;4943950;28;20304;-70
2023/07/22 09:13:31;;;;;;;16.98;6.22;;;11.90;84.80;;;;;;4948922;28;20098;-70
2023/07/22 09:15:59;;;;;;;13.93;5.70;;;11.80;84.80;;;;;;4945402;28;20028;-69
2023/07/22 09:18:27;;;;;;;15.27;6.10;;;11.80;85.10;;;;;;4948380;28;20035;-70
2023/07/22 09:20:54;;;;;;;13.48;6.03;;;11.80;85.50;;;;;;4950218;28;20051;-69
2023/07/22 09:23:32;;;;;;;;;;;11.80;86.00;;;;;;4951753;28;20119;-69
2023/07/22 09:26:10;;;;;;;14.98;5.80;;;11.70;85.80;;;;;;4944345;28;19919;-71
2023/07/22 09:28:57;;;;;;;11.98;5.70;;;11.70;86.50;;;;;;4949827;28;20027;-70
2023/07/22 09:31:32;;;;;;;11.00;5.55;;;11.70;87.00;;;;;;4953222;28;20481;-71
2023/07/22 09:34:11;;;;;;;12.18;5.43;;;11.60;87.40;;;;;;4953356;28;20048;-70
2023/07/22 09:36:57;;;;;;;15.00;5.57;;;11.50;88.40;;;;;;4951778;28;20039;-70
2023/07/22 09:39:25;;;;;;;9.32;4.55;;;11.70;89.10;;;;;;4955260;28;20043;-69
2023/07/22 09:41:52;;;;;;;13.25;7.03;;;11.60;89.50;;;;;;4954261;28;20118;-73
2023/07/22 09:44:20;;;;;;;17.25;9.52;;;11.50;90.20;;;;;;4950071;28;20430;-71
2023/07/22 09:46:51;;;;;;;19.10;11.07;;;11.40;90.40;;;;;;4953314;28;20086;-69
2023/07/22 09:49:19;;;;;;;20.00;10.63;;;11.30;90.40;;;;;;4953225;28;20039;-69
2023/07/22 09:51:47;;;;;;;19.45;10.23;;;11.30;90.40;;;;;;4952489;28;20030;-70
2023/07/22 09:54:14;;;;;;;17.90;8.80;;;11.20;90.50;;;;;;4949723;28;20043;-69
2023/07/22 09:56:47;;;;;;;;;;;11.10;90.80;;;;;;4952899;28;20055;-69
2023/07/22 09:59:17;;;;;;;14.80;6.63;;;11.10;90.90;;;;;;4952782;28;19910;-70
2023/07/22 10:01:48;;;;;;;12.50;5.22;;;11.00;91.10;;;;;;4952320;28;20436;-71
2023/07/22 10:04:17;;;;;;;12.43;4.72;;;11.00;91.20;;;;;;4952570;28;20031;-69
2023/07/22 10:06:45;;;;;;;8.52;4.72;;;11.00;91.30;;;;;;4950575;28;20035;-70
2023/07/22 10:09:15;;;;;;;15.38;6.15;;;11.00;91.40;;;;;;4937998;28;20057;-69
2023/07/22 10:11:42;;;;;;;16.77;7.18;;;11.00;91.40;;;;;;4952370;28;20074;-70
2023/07/22 10:14:12;;;;;;;12.82;7.55;;;11.00;91.40;;;;;;4946658;28;20113;-70
2023/07/22 10:16:40;;;;;;;14.25;7.72;;;11.00;91.70;;;;;;4966025;28;20027;-70
2023/07/22 10:19:09;;;;;;;12.45;7.85;;;11.00;91.60;;;;;;4948086;28;20536;-69
2023/07/22 10:21:39;;;;;;;14.15;7.10;;;11.00;91.60;;;;;;4948540;28;20035;-69
2023/07/22 10:24:07;;;;;;;19.98;9.85;;;11.00;91.60;;;;;;4934182;28;20031;-70
2023/07/22 10:26:35;;;;;;;29.50;15.30;;;11.00;91.60;;;;;;4951034;28;20035;-70
2023/07/22 10:29:03;;;;;;;36.95;19.10;;;11.00;91.70;;;;;;4951702;28;20055;-69
2023/07/22 10:31:34;;;;;;;35.63;17.67;;;11.00;91.70;;;;;;4952074;28;20031;-69
2023/07/22 10:34:02;;;;;;;27.17;12.80;;;11.00;91.50;;;;;;4946790;28;20041;-71
2023/07/22 10:36:31;;;;;;;15.95;7.30;;;11.00;91.50;;;;;;4952774;28;20047;-69
2023/07/22 10:38:59;;;;;;;21.55;10.52;;;10.80;91.50;;;;;;4961212;28;20031;-69
2023/07/22 10:41:27;;;;;;;33.05;15.20;;;10.70;91.50;;;;;;4948592;28;20548;-67
2023/07/22 10:43:57;;;;;;;;;;;10.60;91.60;;;;;;4949189;28;20046;-69
2023/07/22 10:46:40;;;;;;;22.30;11.50;;;10.50;91.50;;;;;;4951804;28;19919;-69
2023/07/22 10:49:15;;;;;;;20.92;12.52;;;10.40;91.90;;;;;;4950370;28;20082;-68
2023/07/22 10:51:49;;;;;;;26.50;15.38;;;10.50;91.50;;;;;;4945263;28;20035;-69
2023/07/22 10:54:36;;;;;;;20.05;10.15;;;10.60;90.90;;;;;;4946295;28;20101;-69
2023/07/22 10:57:15;;;;;;;12.18;6.28;;;10.40;91.70;;;;;;4945842;28;20047;-68
2023/07/22 10:59:51;;;;;;;11.20;4.82;;;10.30;92.30;;;;;;4947352;28;20042;-69
2023/07/22 11:02:31;;;;;;;14.10;7.22;;;10.30;92.60;;;;;;4951125;28;20035;-69
2023/07/22 11:05:00;;;;;;;22.65;9.05;;;10.30;92.70;;;;;;4949732;28;20094;-69
2023/07/22 11:07:43;;;;;;;28.48;11.85;;;10.30;92.70;;;;;;4946947;28;20039;-69
2023/07/22 11:10:20;;;;;;;40.40;14.70;;;10.30;92.80;;;;;;4945886;28;20027;-69
2023/07/22 11:12:49;;;;;;;51.72;17.20;;;10.40;92.70;;;;;;4948000;28;20476;-70
2023/07/22 11:15:17;;;;;;;42.28;14.02;;;10.40;92.60;;;;;;4947709;28;20031;-69
2023/07/22 11:17:45;;;;;;;35.35;12.40;;;10.30;92.70;;;;;;4949502;28;20031;-69
2023/07/22 11:20:12;;;;;;;29.92;9.85;;;10.20;92.80;;;;;;4946001;28;20517;-70
2023/07/22 11:22:43;;;;;;;23.60;9.13;;;10.20;92.60;;;;;;4946868;28;20563;-69
2023/07/22 11:25:17;;;;;;;19.77;8.48;;;10.10;92.70;;;;;;4947466;28;20086;-70
2023/07/22 11:27:45;;;;;;;22.38;11.35;;;10.10;92.70;;;;;;4946496;28;20030;-71
2023/07/22 11:30:13;;;;;;;23.55;11.75;;;9.90;92.20;;;;;;4943320;28;20028;-68
2023/07/22 11:32:44;;;;;;;25.10;16.80;;;9.70;92.30;;;;;;4947243;28;20047;-68
2023/07/22 11:35:11;;;;;;;21.75;14.13;;;9.50;92.40;;;;;;4943352;28;20461;-68
2023/07/22 11:37:39;;;;;;;25.65;13.43;;;9.40;92.30;;;;;;4947531;28;20023;-69
2023/07/22 11:40:08;;;;;;;;;;;9.30;92.60;;;;;;4944249;28;20058;-71
2023/07/22 11:42:36;;;;;;;20.42;10.20;;;9.20;92.80;;;;;;4942619;28;20391;-70
2023/07/22 11:45:03;;;;;;;19.58;10.55;;;9.10;93.10;;;;;;4948389;28;20035;-70
2023/07/22 11:47:31;;;;;;;22.90;10.65;;;9.10;93.10;;;;;;4955252;28;20473;-69
2023/07/22 11:49:59;;;;;;;19.33;10.80;;;9.00;93.40;;;;;;4946591;28;20035;-69
2023/07/22 11:52:27;;;;;;;23.65;13.35;;;9.00;93.50;;;;;;4947659;28;20042;-70
2023/07/22 11:54:54;;;;;;;27.42;13.32;;;9.10;93.20;;;;;;4949382;28;20024;-70
2023/07/22 11:57:24;;;;;;;25.88;13.88;;;9.00;93.20;;;;;;4947826;28;20047;-69
2023/07/22 11:59:52;;;;;;;29.63;13.07;;;8.90;93.20;;;;;;4949166;28;20384;-68
2023/07/22 12:02:28;;;;;;;22.60;12.27;;;8.90;93.40;;;;;;4951700;28;20118;-68
2023/07/22 12:04:58;;;;;;;19.13;9.73;;;8.80;93.50;;;;;;4949927;28;20043;-68
2023/07/22 12:07:27;;;;;;;19.83;9.65;;;8.80;93.40;;;;;;4949837;28;20027;-68
2023/07/22 12:09:56;;;;;;;20.45;9.75;;;8.80;93.40;;;;;;4950015;28;20023;-69
2023/07/22 12:12:46;;;;;;;21.38;9.43;;;8.70;93.30;;;;;;4951665;28;20023;-69
2023/07/22 12:15:18;;;;;;;12.35;6.63;;;8.70;93.50;;;;;;4954191;28;20468;-69
2023/07/22 12:17:45;;;;;;;16.35;8.15;;;8.70;93.70;;;;;;4950925;28;20020;-69
2023/07/22 12:20:12;;;;;;;;;;;8.70;93.90;;;;;;4963962;28;20035;-69
2023/07/22 12:22:39;;;;;;;13.48;6.28;;;8.80;93.70;;;;;;4956327;28;19917;-70
2023/07/22 12:25:06;;;;;;;;;;;8.70;93.60;;;;;;4946570;28;20032;-70
2023/07/22 12:27:34;;;;;;;11.52;6.88;;;8.70;93.70;;;;;;4943194;28;20328;-69
2023/07/22 12:30:01;;;;;;;;;;;8.70;93.90;;;;;;4943520;28;20084;-69
2023/07/22 12:32:28;;;;;;;8.00;3.78;;;8.70;94.10;;;;;;4949411;28;19916;-69
2023/07/22 12:34:55;;;;;;;;;;;8.60;94.30;;;;;;4945574;28;20438;-70
2023/07/22 12:37:22;;;;;;;9.55;3.15;;;8.70;94.40;;;;;;4946396;28;20001;-69
2023/07/22 12:39:49;;;;;;;7.28;3.20;;;8.70;94.30;;;;;;4946005;28;20057;-69
2023/07/22 12:42:16;;;;;;;;;;;8.60;94.50;;;;;;4941647;28;20045;-69
2023/07/22 12:44:43;;;;;;;9.35;3.25;;;8.50;94.90;;;;;;4952131;28;20020;-68
2023/07/22 12:47:10;;;;;;;;;;;8.70;95.00;;;;;;4945524;28;20563;-70
2023/07/22 12:49:37;;;;;;;10.73;4.95;;;8.70;94.80;;;;;;4945447;28;19961;-70
2023/07/22 12:52:07;;;;;;;;;;;8.50;94.60;;;;;;4949945;28;20501;-69
2023/07/22 12:54:38;;;;;;;10.13;5.20;;;8.50;94.60;;;;;;4961279;28;20376;-70